createdAt,value
2023-05-09T00:02:35.143Z,98064.34
2023-05-09T00:12:37.694Z,98046.16
2023-05-09T00:22:41.573Z,98037.16
2023-05-09T00:32:43.997Z,98015.44
2023-05-09T00:42:46.954Z,98002.41
2023-05-09T00:52:49.347Z,97995.87
2023-05-09T01:02:54.468Z,97996.09
2023-05-09T01:13:05.108Z,97998.19
2023-05-09T01:23:14.007Z,97984.09
2023-05-09T01:33:18.566Z,97971.91
2023-05-09T01:43:22.074Z,97974.56
2023-05-09T01:53:24.727Z,97972.94
2023-05-09T02:03:28.044Z,97949.66
2023-05-09T02:13:30.312Z,97935.56
2023-05-09T02:23:32.485Z,97941.00
2023-05-09T02:33:34.926Z,97936.44
2023-05-09T02:43:37.508Z,97938.59
2023-05-09T02:53:39.771Z,97925.91
2023-05-09T03:03:42.071Z,97930.50
2023-05-09T03:13:44.517Z,97928.03
2023-05-09T03:23:46.702Z,97917.22
2023-05-09T03:33:48.997Z,97912.63
2023-05-09T03:43:51.465Z,97904.53
2023-05-09T03:53:54.030Z,97917.50
2023-05-09T04:03:57.998Z,97921.31
2023-05-09T04:14:00.419Z,97926.50
2023-05-09T04:24:02.888Z,97923.03
2023-05-09T04:34:05.260Z,97902.78
2023-05-09T04:44:08.499Z,97905.78
2023-05-09T04:54:11.121Z,97889.25
2023-05-09T05:04:13.611Z,97895.22
2023-05-09T05:14:16.169Z,97893.88
2023-05-09T05:24:18.610Z,97885.19
2023-05-09T05:34:21.176Z,97890.84
2023-05-09T05:44:23.960Z,97885.66
2023-05-09T05:54:26.403Z,97878.50
2023-05-09T06:04:29.317Z,97873.94
2023-05-09T06:14:31.924Z,97875.13
2023-05-09T06:24:36.107Z,97858.06
2023-05-09T06:34:39.982Z,97849.16
2023-05-09T06:44:44.149Z,97836.28
2023-05-09T06:54:46.760Z,97821.41
2023-05-09T07:04:49.596Z,97809.44
2023-05-09T07:14:52.052Z,97800.84
2023-05-09T07:24:54.648Z,97793.56
2023-05-09T07:34:57.149Z,97780.94
2023-05-09T07:45:00.915Z,97752.97
2023-05-09T07:55:03.598Z,97747.78
2023-05-09T08:05:06.364Z,97737.09
2023-05-09T08:15:09.194Z,97734.09
2023-05-09T08:25:13.162Z,97712.41
2023-05-09T08:35:16.285Z,97703.59
2023-05-09T08:45:24.580Z,97685.63
2023-05-09T08:55:28.061Z,97666.78
2023-05-09T09:05:42.357Z,97653.75
2023-05-09T09:15:46.625Z,97641.72
2023-05-09T09:25:49.318Z,97633.16
2023-05-09T09:35:52.705Z,97628.13
2023-05-09T09:45:55.181Z,97619.69
2023-05-09T09:55:57.907Z,97607.75
2023-05-09T10:06:02.352Z,97585.69
2023-05-09T10:16:07.388Z,97566.09
2023-05-09T10:26:24.227Z,97549.06
2023-05-09T10:36:27.311Z,97529.69
2023-05-09T10:46:30.717Z,97515.03
2023-05-09T10:56:35.173Z,97507.66
2023-05-09T11:06:49.994Z,97485.97
2023-05-09T11:17:00.204Z,97463.06
2023-05-09T11:27:06.523Z,97452.88
2023-05-09T11:37:18.869Z,97430.88
2023-05-09T11:47:22.477Z,97415.63
2023-05-09T11:57:26.003Z,97396.16
2023-05-09T12:07:29.936Z,97380.97
2023-05-09T12:17:33.222Z,97362.84
2023-05-09T12:27:37.487Z,97355.75
2023-05-09T12:37:40.703Z,97340.34
2023-05-09T12:47:43.422Z,97325.00
2023-05-09T12:57:58.163Z,97315.22
2023-05-09T13:08:00.733Z,97300.88
2023-05-09T13:18:03.594Z,97286.97
2023-05-09T13:28:06.526Z,97278.09
2023-05-09T13:38:09.175Z,97260.69
2023-05-09T13:48:12.305Z,97255.66
2023-05-09T13:58:15.334Z,97248.06
2023-05-09T14:08:18.629Z,97279.84
2023-05-09T14:18:22.951Z,97301.13
2023-05-09T14:28:26.416Z,97278.06
2023-05-09T14:38:30.966Z,97253.38
2023-05-09T14:48:41.864Z,97250.59
2023-05-09T14:58:44.663Z,97262.69
2023-05-09T15:08:47.953Z,97262.50
2023-05-09T15:18:50.655Z,97273.31
2023-05-09T15:28:53.211Z,97275.25
2023-05-09T15:38:55.907Z,97275.91
2023-05-09T15:48:58.936Z,97269.97
2023-05-09T15:59:01.528Z,97261.16
2023-05-09T16:09:05.195Z,97268.34
2023-05-09T16:19:08.116Z,97262.28
2023-05-09T16:29:11.099Z,97249.28
2023-05-09T16:39:13.816Z,97241.78
2023-05-09T16:49:16.292Z,97234.34
2023-05-09T16:59:20.590Z,97232.44
2023-05-09T17:09:23.408Z,97224.72
2023-05-09T17:19:26.213Z,97223.41
2023-05-09T17:29:31.273Z,97223.88
2023-05-09T17:39:34.138Z,97250.88
2023-05-09T17:49:37.020Z,97242.41
2023-05-09T17:59:42.040Z,97232.41
2023-05-09T18:09:44.642Z,97244.81
2023-05-09T18:19:47.434Z,97234.59
2023-05-09T18:29:50.497Z,97234.09
2023-05-09T18:39:53.782Z,97242.16
2023-05-09T18:49:56.549Z,97250.13
2023-05-09T19:00:00.277Z,97258.19
2023-05-09T19:10:04.978Z,97261.25
2023-05-09T19:20:09.492Z,97271.22
2023-05-09T19:30:15.873Z,97278.75
2023-05-09T19:40:18.603Z,97288.75
2023-05-09T19:50:21.638Z,97302.72
2023-05-09T20:00:24.232Z,97317.78
2023-05-09T20:10:26.954Z,97322.50
2023-05-09T20:20:32.708Z,97320.66
2023-05-09T20:30:35.305Z,97322.09
2023-05-09T20:40:38.085Z,97324.28
2023-05-09T20:50:41.878Z,97325.69
2023-05-09T21:00:47.793Z,97330.41
2023-05-09T21:11:02.242Z,97335.63
2023-05-09T21:21:08.646Z,97329.78
2023-05-09T21:31:11.621Z,97341.56
2023-05-09T21:41:14.210Z,97341.66
2023-05-09T21:51:16.656Z,97350.69
2023-05-09T22:01:18.991Z,97370.28
2023-05-09T22:11:34.041Z,97380.69
2023-05-09T22:21:41.821Z,97382.22
2023-05-09T22:31:44.843Z,97383.47
2023-05-09T22:41:47.184Z,97393.69
2023-05-09T22:51:49.556Z,97390.00
2023-05-09T23:01:53.415Z,97412.88
2023-05-09T23:11:56.453Z,97403.91
2023-05-09T23:21:59.885Z,97410.91
2023-05-09T23:32:02.416Z,97398.22
2023-05-09T23:42:04.883Z,97412.63
2023-05-09T23:52:07.933Z,97405.19
